Terminal Aerodrome Forecast
Issued by NWS

Home | Current Version | Previous Version | Text Only | Print | Product List | Glossary On
Versions: 1 2 3 4 5 6 7 8 9 10 11 12 13 14
000
FTAK31 PAJN 300535
TAFAWG
TAF
PAWG 300535Z 3006/3106 VRB04KT P6SM VCSH FEW004 BKN035 OVC070
     FM300900 VRB04KT P6SM SCT025 OVC040
     FM301600 12008KT P6SM VCSH SCT015 BKN035 OVC070
     FM301900 12018G28KT 5SM RA BR BKN020 OVC035 WS020/13040KT
     FM310200 18010KT P6SM -RA BKN030 OVC050 WS020/21030KT
      AMD LTD TO CLD VIS AND WIND 3006/3015=

USA.gov is the U.S. government's official web portal to all federal, state and local government web resources and services.